sensor_id;sensor_type;location;lat;lon;timestamp;temperature;humidity
58309;DHT22;44117;57.142;24.826;2022-10-14T00:01:13;9.60;99.90
58309;DHT22;44117;57.142;24.826;2022-10-14T00:03:42;9.60;99.90
58309;DHT22;44117;57.142;24.826;2022-10-14T00:06:13;9.60;99.90
58309;DHT22;44117;57.142;24.826;2022-10-14T00:08:41;9.50;99.90
58309;DHT22;44117;57.142;24.826;2022-10-14T00:11:11;9.50;99.90
58309;DHT22;44117;57.142;24.826;2022-10-14T00:13:39;9.60;99.90
58309;DHT22;44117;57.142;24.826;2022-10-14T00:16:17;9.50;99.90
58309;DHT22;44117;57.142;24.826;2022-10-14T00:18:45;9.50;99.90
58309;DHT22;44117;57.142;24.826;2022-10-14T00:21:12;9.50;99.90
58309;DHT22;44117;57.142;24.826;2022-10-14T00:23:39;9.40;99.90
58309;DHT22;44117;57.142;24.826;2022-10-14T00:26:20;9.50;99.90
58309;DHT22;44117;57.142;24.826;2022-10-14T00:28:48;9.50;99.90
58309;DHT22;44117;57.142;24.826;2022-10-14T00:31:16;9.40;99.90
58309;DHT22;44117;57.142;24.826;2022-10-14T00:33:44;9.50;99.90
58309;DHT22;44117;57.142;24.826;2022-10-14T00:36:14;9.50;99.90
58309;DHT22;44117;57.142;24.826;2022-10-14T00:38:41;9.50;99.90
58309;DHT22;44117;57.142;24.826;2022-10-14T00:41:17;9.50;99.90
58309;DHT22;44117;57.142;24.826;2022-10-14T00:44:58;9.50;99.90
58309;DHT22;44117;57.142;24.826;2022-10-14T00:46:54;9.50;99.90
58309;DHT22;44117;57.142;24.826;2022-10-14T00:49:28;9.50;99.90
58309;DHT22;44117;57.142;24.826;2022-10-14T00:52:15;9.50;99.90
58309;DHT22;44117;57.142;24.826;2022-10-14T00:54:47;9.50;99.90
58309;DHT22;44117;57.142;24.826;2022-10-14T00:57:16;9.40;99.90
58309;DHT22;44117;57.142;24.826;2022-10-14T00:59:43;9.40;99.90
58309;DHT22;44117;57.142;24.826;2022-10-14T01:02:10;9.40;99.90
58309;DHT22;44117;57.142;24.826;2022-10-14T01:04:39;9.40;99.90
58309;DHT22;44117;57.142;24.826;2022-10-14T01:07:29;9.40;99.90
58309;DHT22;44117;57.142;24.826;2022-10-14T01:10:23;9.40;99.90
58309;DHT22;44117;57.142;24.826;2022-10-14T01:23:58;9.40;99.90
58309;DHT22;44117;57.142;24.826;2022-10-14T01:26:55;9.40;99.90
58309;DHT22;44117;57.142;24.826;2022-10-14T01:35:36;9.50;99.90
58309;DHT22;44117;57.142;24.826;2022-10-14T01:38:28;9.50;99.90
58309;DHT22;44117;57.142;24.826;2022-10-14T01:41:13;9.50;99.90
58309;DHT22;44117;57.142;24.826;2022-10-14T01:43:45;9.50;99.90
58309;DHT22;44117;57.142;24.826;2022-10-14T01:46:14;9.50;99.90
58309;DHT22;44117;57.142;24.826;2022-10-14T01:48:49;9.40;99.90
58309;DHT22;44117;57.142;24.826;2022-10-14T01:51:30;9.40;99.90
58309;DHT22;44117;57.142;24.826;2022-10-14T01:54:07;9.50;99.90
58309;DHT22;44117;57.142;24.826;2022-10-14T01:56:36;9.40;99.90
58309;DHT22;44117;57.142;24.826;2022-10-14T01:59:08;9.40;99.90
58309;DHT22;44117;57.142;24.826;2022-10-14T02:01:36;9.40;99.90
58309;DHT22;44117;57.142;24.826;2022-10-14T02:04:14;9.40;99.90
58309;DHT22;44117;57.142;24.826;2022-10-14T02:15:20;9.40;99.90
58309;DHT22;44117;57.142;24.826;2022-10-14T02:23:28;9.40;99.90
58309;DHT22;44117;57.142;24.826;2022-10-14T02:25:57;9.40;99.90
58309;DHT22;44117;57.142;24.826;2022-10-14T02:28:26;9.40;99.90
58309;DHT22;44117;57.142;24.826;2022-10-14T02:31:03;9.40;99.90
58309;DHT22;44117;57.142;24.826;2022-10-14T02:33:41;9.40;99.90
58309;DHT22;44117;57.142;24.826;2022-10-14T02:36:14;9.40;99.90
58309;DHT22;44117;57.142;24.826;2022-10-14T02:38:45;9.40;99.90
58309;DHT22;44117;57.142;24.826;2022-10-14T02:41:18;9.40;99.90
58309;DHT22;44117;57.142;24.826;2022-10-14T02:43:45;9.40;99.90
58309;DHT22;44117;57.142;24.826;2022-10-14T02:46:13;9.40;99.90
58309;DHT22;44117;57.142;24.826;2022-10-14T02:48:40;9.40;99.90
58309;DHT22;44117;57.142;24.826;2022-10-14T02:51:08;9.40;99.90
58309;DHT22;44117;57.142;24.826;2022-10-14T02:53:35;9.40;99.90
58309;DHT22;44117;57.142;24.826;2022-10-14T02:56:02;9.30;99.90
58309;DHT22;44117;57.142;24.826;2022-10-14T02:58:30;9.30;99.90
58309;DHT22;44117;57.142;24.826;2022-10-14T03:00:57;9.30;99.90
58309;DHT22;44117;57.142;24.826;2022-10-14T03:03:24;9.30;99.90
58309;DHT22;44117;57.142;24.826;2022-10-14T03:05:52;9.30;99.90
58309;DHT22;44117;57.142;24.826;2022-10-14T03:08:19;9.30;99.90
58309;DHT22;44117;57.142;24.826;2022-10-14T03:10:47;9.30;99.90
58309;DHT22;44117;57.142;24.826;2022-10-14T03:13:14;9.30;99.90
58309;DHT22;44117;57.142;24.826;2022-10-14T03:15:42;9.30;99.90
58309;DHT22;44117;57.142;24.826;2022-10-14T03:18:09;9.30;99.90
58309;DHT22;44117;57.142;24.826;2022-10-14T03:20:36;9.30;99.90
58309;DHT22;44117;57.142;24.826;2022-10-14T03:23:03;9.30;99.90
58309;DHT22;44117;57.142;24.826;2022-10-14T03:25:30;9.30;99.90
58309;DHT22;44117;57.142;24.826;2022-10-14T03:27:58;9.20;99.90
58309;DHT22;44117;57.142;24.826;2022-10-14T03:30:25;9.30;99.90
58309;DHT22;44117;57.142;24.826;2022-10-14T03:32:52;9.30;99.90
58309;DHT22;44117;57.142;24.826;2022-10-14T03:35:19;9.30;99.90
58309;DHT22;44117;57.142;24.826;2022-10-14T03:37:47;9.30;99.90
58309;DHT22;44117;57.142;24.826;2022-10-14T03:40:14;9.30;99.90
58309;DHT22;44117;57.142;24.826;2022-10-14T03:42:41;9.30;99.90
58309;DHT22;44117;57.142;24.826;2022-10-14T03:45:09;9.30;99.90
58309;DHT22;44117;57.142;24.826;2022-10-14T03:47:36;9.30;99.90
58309;DHT22;44117;57.142;24.826;2022-10-14T03:50:04;9.20;99.90
58309;DHT22;44117;57.142;24.826;2022-10-14T03:52:32;9.20;99.90
58309;DHT22;44117;57.142;24.826;2022-10-14T03:54:59;9.20;99.90
58309;DHT22;44117;57.142;24.826;2022-10-14T03:57:26;9.30;99.90
58309;DHT22;44117;57.142;24.826;2022-10-14T03:59:53;9.30;99.90
58309;DHT22;44117;57.142;24.826;2022-10-14T04:02:21;9.30;99.90
58309;DHT22;44117;57.142;24.826;2022-10-14T04:04:49;9.30;99.90
58309;DHT22;44117;57.142;24.826;2022-10-14T04:07:16;9.30;99.90
58309;DHT22;44117;57.142;24.826;2022-10-14T04:09:43;9.30;99.90
58309;DHT22;44117;57.142;24.826;2022-10-14T04:12:10;9.30;99.90
58309;DHT22;44117;57.142;24.826;2022-10-14T04:14:37;9.30;99.90
58309;DHT22;44117;57.142;24.826;2022-10-14T04:17:05;9.30;99.90
58309;DHT22;44117;57.142;24.826;2022-10-14T04:19:32;9.30;99.90
58309;DHT22;44117;57.142;24.826;2022-10-14T04:21:59;9.30;99.90
58309;DHT22;44117;57.142;24.826;2022-10-14T04:24:26;9.20;99.90
58309;DHT22;44117;57.142;24.826;2022-10-14T04:26:54;9.20;99.90
58309;DHT22;44117;57.142;24.826;2022-10-14T04:29:21;9.20;99.90
58309;DHT22;44117;57.142;24.826;2022-10-14T04:31:49;9.20;99.90
58309;DHT22;44117;57.142;24.826;2022-10-14T04:34:16;9.20;99.90
58309;DHT22;44117;57.142;24.826;2022-10-14T04:36:43;9.20;99.90
58309;DHT22;44117;57.142;24.826;2022-10-14T04:39:10;9.10;99.90
58309;DHT22;44117;57.142;24.826;2022-10-14T04:41:37;9.20;99.90
58309;DHT22;44117;57.142;24.826;2022-10-14T04:44:05;9.20;99.90
58309;DHT22;44117;57.142;24.826;2022-10-14T04:46:32;9.20;99.90
58309;DHT22;44117;57.142;24.826;2022-10-14T04:48:59;9.20;99.90
58309;DHT22;44117;57.142;24.826;2022-10-14T04:51:26;9.20;99.90
58309;DHT22;44117;57.142;24.826;2022-10-14T04:53:53;9.20;99.90
58309;DHT22;44117;57.142;24.826;2022-10-14T04:56:21;9.20;99.90
58309;DHT22;44117;57.142;24.826;2022-10-14T04:58:48;9.20;99.90
58309;DHT22;44117;57.142;24.826;2022-10-14T05:01:15;9.20;99.90
58309;DHT22;44117;57.142;24.826;2022-10-14T05:03:44;9.20;99.90
58309;DHT22;44117;57.142;24.826;2022-10-14T05:06:11;9.20;99.90
58309;DHT22;44117;57.142;24.826;2022-10-14T05:08:39;9.20;99.90
58309;DHT22;44117;57.142;24.826;2022-10-14T05:11:06;9.20;99.90
58309;DHT22;44117;57.142;24.826;2022-10-14T05:13:33;9.20;99.90
58309;DHT22;44117;57.142;24.826;2022-10-14T05:16:01;9.20;99.90
58309;DHT22;44117;57.142;24.826;2022-10-14T05:18:29;9.20;99.90
58309;DHT22;44117;57.142;24.826;2022-10-14T05:20:59;9.20;99.90
58309;DHT22;44117;57.142;24.826;2022-10-14T05:23:27;9.20;99.90
58309;DHT22;44117;57.142;24.826;2022-10-14T05:25:54;9.20;99.90
58309;DHT22;44117;57.142;24.826;2022-10-14T05:28:21;9.20;99.90
58309;DHT22;44117;57.142;24.826;2022-10-14T05:30:49;9.30;99.90
58309;DHT22;44117;57.142;24.826;2022-10-14T05:33:16;9.30;99.90
58309;DHT22;44117;57.142;24.826;2022-10-14T05:35:43;9.30;99.90
58309;DHT22;44117;57.142;24.826;2022-10-14T05:38:25;9.30;99.90
58309;DHT22;44117;57.142;24.826;2022-10-14T05:40:53;9.30;99.90
58309;DHT22;44117;57.142;24.826;2022-10-14T05:43:21;9.40;99.90
58309;DHT22;44117;57.142;24.826;2022-10-14T05:45:57;9.40;99.90
58309;DHT22;44117;57.142;24.826;2022-10-14T05:48:25;9.40;99.90
58309;DHT22;44117;57.142;24.826;2022-10-14T05:50:52;9.40;99.90
58309;DHT22;44117;57.142;24.826;2022-10-14T05:53:19;9.40;99.90
58309;DHT22;44117;57.142;24.826;2022-10-14T05:55:47;9.30;99.90
58309;DHT22;44117;57.142;24.826;2022-10-14T05:58:14;9.30;99.90
58309;DHT22;44117;57.142;24.826;2022-10-14T06:00:41;9.30;99.90
58309;DHT22;44117;57.142;24.826;2022-10-14T06:03:10;9.40;99.90
58309;DHT22;44117;57.142;24.826;2022-10-14T06:05:39;9.40;99.90
58309;DHT22;44117;57.142;24.826;2022-10-14T06:08:06;9.30;99.90
58309;DHT22;44117;57.142;24.826;2022-10-14T06:10:34;9.30;99.90
58309;DHT22;44117;57.142;24.826;2022-10-14T06:13:01;9.30;99.90
58309;DHT22;44117;57.142;24.826;2022-10-14T06:15:29;9.30;99.90
58309;DHT22;44117;57.142;24.826;2022-10-14T06:17:56;9.30;99.90
58309;DHT22;44117;57.142;24.826;2022-10-14T06:20:23;9.30;99.90
58309;DHT22;44117;57.142;24.826;2022-10-14T06:22:50;9.40;99.90
58309;DHT22;44117;57.142;24.826;2022-10-14T06:25:17;9.40;99.90
58309;DHT22;44117;57.142;24.826;2022-10-14T06:27:44;9.40;99.90
58309;DHT22;44117;57.142;24.826;2022-10-14T06:30:12;9.40;99.90
58309;DHT22;44117;57.142;24.826;2022-10-14T06:32:39;9.40;99.90
58309;DHT22;44117;57.142;24.826;2022-10-14T06:35:07;9.50;99.90
58309;DHT22;44117;57.142;24.826;2022-10-14T06:37:34;9.50;99.90
58309;DHT22;44117;57.142;24.826;2022-10-14T06:40:01;9.60;99.90
58309;DHT22;44117;57.142;24.826;2022-10-14T06:42:29;9.70;99.90
58309;DHT22;44117;57.142;24.826;2022-10-14T06:44:56;9.80;99.90
58309;DHT22;44117;57.142;24.826;2022-10-14T06:47:24;9.90;99.90
58309;DHT22;44117;57.142;24.826;2022-10-14T06:49:51;10.00;99.90
58309;DHT22;44117;57.142;24.826;2022-10-14T06:52:18;10.00;99.90
58309;DHT22;44117;57.142;24.826;2022-10-14T06:54:46;10.10;99.90
58309;DHT22;44117;57.142;24.826;2022-10-14T06:57:14;10.10;99.90
58309;DHT22;44117;57.142;24.826;2022-10-14T06:59:41;10.10;99.90
58309;DHT22;44117;57.142;24.826;2022-10-14T07:02:09;10.10;99.90
58309;DHT22;44117;57.142;24.826;2022-10-14T07:04:39;10.10;99.90
58309;DHT22;44117;57.142;24.826;2022-10-14T07:07:07;10.10;99.90
58309;DHT22;44117;57.142;24.826;2022-10-14T07:09:34;10.20;99.90
58309;DHT22;44117;57.142;24.826;2022-10-14T07:12:02;10.10;99.90
58309;DHT22;44117;57.142;24.826;2022-10-14T07:14:29;10.20;99.90
58309;DHT22;44117;57.142;24.826;2022-10-14T07:16:57;10.20;99.90
58309;DHT22;44117;57.142;24.826;2022-10-14T07:19:24;10.20;99.90
58309;DHT22;44117;57.142;24.826;2022-10-14T07:21:52;10.20;99.90
58309;DHT22;44117;57.142;24.826;2022-10-14T07:24:19;10.30;99.90
58309;DHT22;44117;57.142;24.826;2022-10-14T07:26:47;10.20;99.90
58309;DHT22;44117;57.142;24.826;2022-10-14T07:29:14;10.20;99.90
58309;DHT22;44117;57.142;24.826;2022-10-14T07:31:41;10.20;99.90
58309;DHT22;44117;57.142;24.826;2022-10-14T07:34:08;10.20;99.90
58309;DHT22;44117;57.142;24.826;2022-10-14T07:36:36;10.30;99.90
58309;DHT22;44117;57.142;24.826;2022-10-14T07:39:04;10.40;99.90
58309;DHT22;44117;57.142;24.826;2022-10-14T07:41:32;10.40;99.90
58309;DHT22;44117;57.142;24.826;2022-10-14T07:44:01;10.60;99.90
58309;DHT22;44117;57.142;24.826;2022-10-14T07:46:33;10.70;99.90
58309;DHT22;44117;57.142;24.826;2022-10-14T07:49:10;10.80;99.90
58309;DHT22;44117;57.142;24.826;2022-10-14T07:51:39;10.90;99.90
58309;DHT22;44117;57.142;24.826;2022-10-14T07:54:08;10.80;99.90
58309;DHT22;44117;57.142;24.826;2022-10-14T07:56:41;10.80;99.90
58309;DHT22;44117;57.142;24.826;2022-10-14T07:59:09;10.70;99.90
58309;DHT22;44117;57.142;24.826;2022-10-14T08:01:36;10.80;99.90
58309;DHT22;44117;57.142;24.826;2022-10-14T08:04:03;10.80;99.90
58309;DHT22;44117;57.142;24.826;2022-10-14T08:06:31;10.80;99.90
58309;DHT22;44117;57.142;24.826;2022-10-14T08:08:58;10.90;99.90
58309;DHT22;44117;57.142;24.826;2022-10-14T08:11:27;10.90;99.90
58309;DHT22;44117;57.142;24.826;2022-10-14T08:13:58;11.00;99.90
58309;DHT22;44117;57.142;24.826;2022-10-14T08:16:27;11.00;99.90
58309;DHT22;44117;57.142;24.826;2022-10-14T08:18:56;11.00;99.90
58309;DHT22;44117;57.142;24.826;2022-10-14T08:21:24;11.10;99.90
58309;DHT22;44117;57.142;24.826;2022-10-14T08:23:51;11.10;99.90
58309;DHT22;44117;57.142;24.826;2022-10-14T08:26:35;11.30;99.90
58309;DHT22;44117;57.142;24.826;2022-10-14T08:29:05;11.40;99.90
58309;DHT22;44117;57.142;24.826;2022-10-14T08:31:32;11.50;99.90
58309;DHT22;44117;57.142;24.826;2022-10-14T08:34:00;11.40;99.90
58309;DHT22;44117;57.142;24.826;2022-10-14T08:36:28;11.50;99.90
58309;DHT22;44117;57.142;24.826;2022-10-14T08:38:55;11.40;99.90
58309;DHT22;44117;57.142;24.826;2022-10-14T08:41:46;11.50;99.90
58309;DHT22;44117;57.142;24.826;2022-10-14T08:47:13;11.50;99.90
58309;DHT22;44117;57.142;24.826;2022-10-14T08:49:58;11.60;99.90
58309;DHT22;44117;57.142;24.826;2022-10-14T08:52:37;11.60;99.90
58309;DHT22;44117;57.142;24.826;2022-10-14T08:55:34;11.60;99.90
58309;DHT22;44117;57.142;24.826;2022-10-14T08:58:24;11.70;99.90
58309;DHT22;44117;57.142;24.826;2022-10-14T09:00:55;11.80;99.90
58309;DHT22;44117;57.142;24.826;2022-10-14T09:03:23;11.90;99.90
58309;DHT22;44117;57.142;24.826;2022-10-14T09:06:09;11.90;99.90
58309;DHT22;44117;57.142;24.826;2022-10-14T09:08:41;12.00;99.90
58309;DHT22;44117;57.142;24.826;2022-10-14T09:11:38;12.00;99.90
58309;DHT22;44117;57.142;24.826;2022-10-14T09:14:10;12.00;99.90
58309;DHT22;44117;57.142;24.826;2022-10-14T09:16:41;12.10;99.90
58309;DHT22;44117;57.142;24.826;2022-10-14T09:19:33;11.90;99.90
58309;DHT22;44117;57.142;24.826;2022-10-14T09:22:03;11.90;99.90
58309;DHT22;44117;57.142;24.826;2022-10-14T09:24:38;12.00;99.90
58309;DHT22;44117;57.142;24.826;2022-10-14T09:29:47;12.30;99.90
58309;DHT22;44117;57.142;24.826;2022-10-14T09:32:26;12.40;99.90
58309;DHT22;44117;57.142;24.826;2022-10-14T09:34:55;12.40;99.90
58309;DHT22;44117;57.142;24.826;2022-10-14T09:40:16;12.30;99.90
58309;DHT22;44117;57.142;24.826;2022-10-14T09:45:44;12.30;99.90
58309;DHT22;44117;57.142;24.826;2022-10-14T09:48:43;12.40;99.90
58309;DHT22;44117;57.142;24.826;2022-10-14T09:51:25;12.30;99.90
58309;DHT22;44117;57.142;24.826;2022-10-14T09:53:55;12.20;99.90
58309;DHT22;44117;57.142;24.826;2022-10-14T09:56:38;12.20;99.90
58309;DHT22;44117;57.142;24.826;2022-10-14T09:59:21;12.20;99.90
58309;DHT22;44117;57.142;24.826;2022-10-14T10:01:52;12.20;99.90
58309;DHT22;44117;57.142;24.826;2022-10-14T10:04:40;12.10;99.90
58309;DHT22;44117;57.142;24.826;2022-10-14T10:10:01;12.30;99.90
58309;DHT22;44117;57.142;24.826;2022-10-14T10:12:33;12.40;99.90
58309;DHT22;44117;57.142;24.826;2022-10-14T10:15:05;12.40;99.90
58309;DHT22;44117;57.142;24.826;2022-10-14T10:17:38;12.60;99.90
58309;DHT22;44117;57.142;24.826;2022-10-14T10:23:06;12.90;99.90
58309;DHT22;44117;57.142;24.826;2022-10-14T10:25:43;13.20;99.90
58309;DHT22;44117;57.142;24.826;2022-10-14T10:28:20;13.10;99.30
58309;DHT22;44117;57.142;24.826;2022-10-14T10:31:19;13.30;99.40
58309;DHT22;44117;57.142;24.826;2022-10-14T10:36:53;13.40;98.60
58309;DHT22;44117;57.142;24.826;2022-10-14T10:39:48;13.60;97.90
58309;DHT22;44117;57.142;24.826;2022-10-14T10:42:29;13.90;97.60
58309;DHT22;44117;57.142;24.826;2022-10-14T10:45:41;14.10;97.40
58309;DHT22;44117;57.142;24.826;2022-10-14T10:51:04;14.30;96.00
58309;DHT22;44117;57.142;24.826;2022-10-14T11:04:32;16.20;92.30
58309;DHT22;44117;57.142;24.826;2022-10-14T11:07:22;16.00;92.00
58309;DHT22;44117;57.142;24.826;2022-10-14T11:13:32;16.20;91.10
58309;DHT22;44117;57.142;24.826;2022-10-14T11:21:28;16.30;91.20
58309;DHT22;44117;57.142;24.826;2022-10-14T11:27:07;16.10;91.00
58309;DHT22;44117;57.142;24.826;2022-10-14T11:35:21;16.10;90.70
58309;DHT22;44117;57.142;24.826;2022-10-14T11:40:48;15.70;91.00
58309;DHT22;44117;57.142;24.826;2022-10-14T11:46:20;16.40;90.30
58309;DHT22;44117;57.142;24.826;2022-10-14T11:48:55;16.80;89.90
58309;DHT22;44117;57.142;24.826;2022-10-14T11:51:43;16.80;89.20
58309;DHT22;44117;57.142;24.826;2022-10-14T11:55:05;17.40;89.60
58309;DHT22;44117;57.142;24.826;2022-10-14T11:57:17;17.00;88.80
58309;DHT22;44117;57.142;24.826;2022-10-14T12:00:02;16.80;88.50
58309;DHT22;44117;57.142;24.826;2022-10-14T12:02:51;16.60;88.80
58309;DHT22;44117;57.142;24.826;2022-10-14T12:05:51;16.30;90.00
58309;DHT22;44117;57.142;24.826;2022-10-14T12:11:05;16.00;90.60
58309;DHT22;44117;57.142;24.826;2022-10-14T12:13:43;16.30;89.80
58309;DHT22;44117;57.142;24.826;2022-10-14T12:16:15;16.60;90.10
58309;DHT22;44117;57.142;24.826;2022-10-14T12:18:47;16.50;89.70
58309;DHT22;44117;57.142;24.826;2022-10-14T12:21:53;16.70;87.30
58309;DHT22;44117;57.142;24.826;2022-10-14T12:24:25;16.30;88.80
58309;DHT22;44117;57.142;24.826;2022-10-14T12:26:57;17.10;88.90
58309;DHT22;44117;57.142;24.826;2022-10-14T12:29:40;16.80;87.00
58309;DHT22;44117;57.142;24.826;2022-10-14T12:35:00;16.30;88.90
58309;DHT22;44117;57.142;24.826;2022-10-14T12:45:16;16.20;88.60
58309;DHT22;44117;57.142;24.826;2022-10-14T12:47:45;16.20;88.70
58309;DHT22;44117;57.142;24.826;2022-10-14T12:52:45;15.40;90.40
58309;DHT22;44117;57.142;24.826;2022-10-14T12:55:22;15.70;90.60
58309;DHT22;44117;57.142;24.826;2022-10-14T12:58:04;16.40;89.50
58309;DHT22;44117;57.142;24.826;2022-10-14T13:00:38;17.50;87.30
58309;DHT22;44117;57.142;24.826;2022-10-14T13:03:18;17.90;85.90
58309;DHT22;44117;57.142;24.826;2022-10-14T13:05:46;18.10;85.50
58309;DHT22;44117;57.142;24.826;2022-10-14T13:18:55;17.90;84.60
58309;DHT22;44117;57.142;24.826;2022-10-14T13:24:14;17.50;85.20
58309;DHT22;44117;57.142;24.826;2022-10-14T13:29:16;18.70;84.20
58309;DHT22;44117;57.142;24.826;2022-10-14T13:32:08;18.30;83.60
58309;DHT22;44117;57.142;24.826;2022-10-14T13:37:37;16.50;88.10
58309;DHT22;44117;57.142;24.826;2022-10-14T13:42:58;14.80;91.40
58309;DHT22;44117;57.142;24.826;2022-10-14T13:45:33;14.60;91.90
58309;DHT22;44117;57.142;24.826;2022-10-14T13:48:15;14.40;91.90
58309;DHT22;44117;57.142;24.826;2022-10-14T13:50:47;14.20;92.40
58309;DHT22;44117;57.142;24.826;2022-10-14T13:53:18;14.10;92.90
58309;DHT22;44117;57.142;24.826;2022-10-14T13:55:49;14.00;93.00
58309;DHT22;44117;57.142;24.826;2022-10-14T13:58:21;14.00;93.20
58309;DHT22;44117;57.142;24.826;2022-10-14T14:00:59;14.00;93.50
58309;DHT22;44117;57.142;24.826;2022-10-14T14:03:42;14.00;93.50
58309;DHT22;44117;57.142;24.826;2022-10-14T14:06:13;14.00;93.60
58309;DHT22;44117;57.142;24.826;2022-10-14T14:08:56;14.00;93.40
58309;DHT22;44117;57.142;24.826;2022-10-14T14:11:30;14.10;93.70
58309;DHT22;44117;57.142;24.826;2022-10-14T14:14:07;14.00;93.60
58309;DHT22;44117;57.142;24.826;2022-10-14T14:16:38;13.90;93.70
58309;DHT22;44117;57.142;24.826;2022-10-14T14:19:30;13.80;94.00
58309;DHT22;44117;57.142;24.826;2022-10-14T14:22:25;13.70;94.20
58309;DHT22;44117;57.142;24.826;2022-10-14T14:28:12;13.60;94.50
58309;DHT22;44117;57.142;24.826;2022-10-14T14:30:50;13.60;94.60
58309;DHT22;44117;57.142;24.826;2022-10-14T14:33:28;13.60;94.90
58309;DHT22;44117;57.142;24.826;2022-10-14T14:35:58;13.50;95.00
58309;DHT22;44117;57.142;24.826;2022-10-14T14:38:32;13.40;95.30
58309;DHT22;44117;57.142;24.826;2022-10-14T14:41:04;13.30;95.50
58309;DHT22;44117;57.142;24.826;2022-10-14T14:43:32;13.20;95.70
58309;DHT22;44117;57.142;24.826;2022-10-14T14:46:06;13.20;96.00
58309;DHT22;44117;57.142;24.826;2022-10-14T14:48:33;13.10;96.30
58309;DHT22;44117;57.142;24.826;2022-10-14T14:51:01;13.00;96.50
58309;DHT22;44117;57.142;24.826;2022-10-14T14:53:29;13.00;96.60
58309;DHT22;44117;57.142;24.826;2022-10-14T14:58:31;12.90;97.10
58309;DHT22;44117;57.142;24.826;2022-10-14T15:01:00;12.80;97.30
58309;DHT22;44117;57.142;24.826;2022-10-14T15:03:30;12.80;97.40
58309;DHT22;44117;57.142;24.826;2022-10-14T15:06:00;12.70;97.60
58309;DHT22;44117;57.142;24.826;2022-10-14T15:08:31;12.60;97.70
58309;DHT22;44117;57.142;24.826;2022-10-14T15:10:59;12.60;97.90
58309;DHT22;44117;57.142;24.826;2022-10-14T15:13:30;12.60;98.10
58309;DHT22;44117;57.142;24.826;2022-10-14T15:15:58;12.50;98.30
58309;DHT22;44117;57.142;24.826;2022-10-14T15:18:27;12.40;98.60
58309;DHT22;44117;57.142;24.826;2022-10-14T15:21:14;12.30;98.80
58309;DHT22;44117;57.142;24.826;2022-10-14T15:26:31;12.20;99.20
58309;DHT22;44117;57.142;24.826;2022-10-14T15:29:19;12.20;99.50
58309;DHT22;44117;57.142;24.826;2022-10-14T15:34:28;12.00;99.90
58309;DHT22;44117;57.142;24.826;2022-10-14T15:36:55;12.00;99.90
58309;DHT22;44117;57.142;24.826;2022-10-14T15:39:22;12.00;99.90
58309;DHT22;44117;57.142;24.826;2022-10-14T15:41:50;12.00;99.90
58309;DHT22;44117;57.142;24.826;2022-10-14T15:44:17;11.90;99.90
58309;DHT22;44117;57.142;24.826;2022-10-14T15:46:45;11.90;99.90
58309;DHT22;44117;57.142;24.826;2022-10-14T15:49:39;11.90;99.90
58309;DHT22;44117;57.142;24.826;2022-10-14T15:52:13;11.80;99.90
58309;DHT22;44117;57.142;24.826;2022-10-14T15:54:42;11.80;99.90
58309;DHT22;44117;57.142;24.826;2022-10-14T15:57:11;11.80;99.90
58309;DHT22;44117;57.142;24.826;2022-10-14T15:59:42;11.80;99.90
58309;DHT22;44117;57.142;24.826;2022-10-14T16:02:21;11.80;99.90
58309;DHT22;44117;57.142;24.826;2022-10-14T16:04:50;11.70;99.90
58309;DHT22;44117;57.142;24.826;2022-10-14T16:07:38;11.70;99.90
58309;DHT22;44117;57.142;24.826;2022-10-14T16:10:07;11.60;99.90
58309;DHT22;44117;57.142;24.826;2022-10-14T16:12:35;11.60;99.90
58309;DHT22;44117;57.142;24.826;2022-10-14T16:15:07;11.60;99.90
58309;DHT22;44117;57.142;24.826;2022-10-14T16:17:40;11.60;99.90
58309;DHT22;44117;57.142;24.826;2022-10-14T16:20:09;11.50;99.90
58309;DHT22;44117;57.142;24.826;2022-10-14T16:22:37;11.50;99.90
58309;DHT22;44117;57.142;24.826;2022-10-14T16:25:05;11.50;99.90
58309;DHT22;44117;57.142;24.826;2022-10-14T16:27:33;11.40;99.90
58309;DHT22;44117;57.142;24.826;2022-10-14T16:30:00;11.40;99.90
58309;DHT22;44117;57.142;24.826;2022-10-14T16:32:28;11.40;99.90
58309;DHT22;44117;57.142;24.826;2022-10-14T16:34:55;11.40;99.90
58309;DHT22;44117;57.142;24.826;2022-10-14T16:37:22;11.30;99.90
58309;DHT22;44117;57.142;24.826;2022-10-14T16:39:50;11.30;99.90
58309;DHT22;44117;57.142;24.826;2022-10-14T16:42:17;11.30;99.90
58309;DHT22;44117;57.142;24.826;2022-10-14T16:44:44;11.20;99.90
58309;DHT22;44117;57.142;24.826;2022-10-14T16:47:12;11.10;99.90
58309;DHT22;44117;57.142;24.826;2022-10-14T16:49:45;11.10;99.90
58309;DHT22;44117;57.142;24.826;2022-10-14T16:52:14;11.00;99.90
58309;DHT22;44117;57.142;24.826;2022-10-14T16:54:41;11.00;99.90
58309;DHT22;44117;57.142;24.826;2022-10-14T16:57:09;10.90;99.90
58309;DHT22;44117;57.142;24.826;2022-10-14T16:59:37;10.90;99.90
58309;DHT22;44117;57.142;24.826;2022-10-14T17:02:05;10.90;99.90
58309;DHT22;44117;57.142;24.826;2022-10-14T17:04:37;10.90;99.90
58309;DHT22;44117;57.142;24.826;2022-10-14T17:07:05;10.90;99.90
58309;DHT22;44117;57.142;24.826;2022-10-14T17:09:35;10.80;99.90
58309;DHT22;44117;57.142;24.826;2022-10-14T17:12:05;10.80;99.90
58309;DHT22;44117;57.142;24.826;2022-10-14T17:14:38;10.80;99.90
58309;DHT22;44117;57.142;24.826;2022-10-14T17:17:05;10.70;99.90
58309;DHT22;44117;57.142;24.826;2022-10-14T17:19:33;10.70;99.90
58309;DHT22;44117;57.142;24.826;2022-10-14T17:22:01;10.60;99.90
58309;DHT22;44117;57.142;24.826;2022-10-14T17:24:29;10.50;99.90
58309;DHT22;44117;57.142;24.826;2022-10-14T17:26:56;10.50;99.90
58309;DHT22;44117;57.142;24.826;2022-10-14T17:29:24;10.40;99.90
58309;DHT22;44117;57.142;24.826;2022-10-14T17:31:51;10.50;99.90
58309;DHT22;44117;57.142;24.826;2022-10-14T17:34:19;10.50;99.90
58309;DHT22;44117;57.142;24.826;2022-10-14T17:36:46;10.50;99.90
58309;DHT22;44117;57.142;24.826;2022-10-14T17:39:13;10.40;99.90
58309;DHT22;44117;57.142;24.826;2022-10-14T17:41:54;10.40;99.90
58309;DHT22;44117;57.142;24.826;2022-10-14T17:44:21;10.40;99.90
58309;DHT22;44117;57.142;24.826;2022-10-14T17:46:48;10.40;99.90
58309;DHT22;44117;57.142;24.826;2022-10-14T17:49:15;10.30;99.90
58309;DHT22;44117;57.142;24.826;2022-10-14T17:51:42;10.30;99.90
58309;DHT22;44117;57.142;24.826;2022-10-14T17:54:11;10.30;99.90
58309;DHT22;44117;57.142;24.826;2022-10-14T17:56:39;10.30;99.90
58309;DHT22;44117;57.142;24.826;2022-10-14T17:59:09;10.30;99.90
58309;DHT22;44117;57.142;24.826;2022-10-14T18:01:37;10.30;99.90
58309;DHT22;44117;57.142;24.826;2022-10-14T18:04:24;10.30;99.90
58309;DHT22;44117;57.142;24.826;2022-10-14T18:06:52;10.20;99.90
58309;DHT22;44117;57.142;24.826;2022-10-14T18:09:20;10.20;99.90